Pagrindinis puslapis
METAR-TAF:

METAR-TAF

Oro uostai :

Vinycia, Ukraina

platuma: 49-14-23N, ilguma: 028-36-50E, Aukštis: 974 m

Dabartinis oras

Ataskaita buvo paskelbta 1 valandą ir 37 minutes, ne 12:30 UTC
Vėjas 14 kt iš Šiaurės/Šiaurės Rytų
Temperatūra 15°C
Drėgmė 55%
Slėgis 1009 hPa
Matomumas 10 km arba daugiau

METAR: UKWW 011230Z 02007MPS 9999 NSC 15/06 Q1009 NOSIG

Laikas: 17:07 (14:07 UTC)

Prognozė

Ataskaita buvo paskelbta 2 valandos ir 57 minutes, ne 11:10 UTC
Prognozė galioja nuo 01 metu 12 UTC su 01 metu 21 UTC
Vėjas 14 kt iš Šiaurės/Šiaurės Rytų su gūsio iki 23 kt
Matomumas 10 km arba daugiau
Su prošvaistėmis ne aukštis 2000 ft
Laikinai
nuo 01 metu 12 UTC su 01 metu 17 UTC
Vėjas 23 kt iš Šiaurės/Šiaurės Rytų su gūsio iki 33 kt
Matomumas: 2100 m
Išsisklaidę debesys ne aukštis 500 ft
Su prošvaistėmis ne aukštis 1500 ft, Liūtiniai kamuoliniai debesys.
lietus

TAF: UKWW 011110Z 0112/0121 02007G12MPS 9999 BKN020 TEMPO 0112/0117 03012G17MPS 2100 -SHRA SCT005 BKN015CB

Orai ataskaitas ir orų prognozės (METAR, TAF).

turimą stotys yra geltonos ir raudonos taškus žemėlapyje.

Perkelti pele per norėdami pamatyti stoties vardą.

Tada spustelėkite, norėdami matyti oro stebėjimo ir prognozės.

Norėdami pakeisti žemėlapį: spustelėkite ant žalios mygtukų su juodo kryžiaus žemyn,; žalią mygtuką su brūkšneliu, jei norite nutolinti; arba žalių rodyklių gretimoms žemėlapius.


METAR-TAF: